sensor_id;sensor_type;location;lat;lon;timestamp;P1;durP1;ratioP1;P2;durP2;ratioP2
1777;SDS011;71547;50.146;8.174;2023-12-28T00:00:17;5.00;;;3.00;;
1777;SDS011;71547;50.146;8.174;2023-12-28T00:02:44;3.08;;;2.70;;
1777;SDS011;71547;50.146;8.174;2023-12-28T00:05:12;3.20;;;2.90;;
1777;SDS011;71547;50.146;8.174;2023-12-28T00:07:39;4.07;;;3.38;;
1777;SDS011;71547;50.146;8.174;2023-12-28T00:10:07;4.35;;;3.95;;
1777;SDS011;71547;50.146;8.174;2023-12-28T00:12:36;4.90;;;3.13;;
1777;SDS011;71547;50.146;8.174;2023-12-28T00:15:03;3.85;;;3.53;;
1777;SDS011;71547;50.146;8.174;2023-12-28T00:17:31;4.22;;;3.92;;
1777;SDS011;71547;50.146;8.174;2023-12-28T00:19:58;3.70;;;3.40;;
1777;SDS011;71547;50.146;8.174;2023-12-28T00:22:25;3.30;;;3.00;;
1777;SDS011;71547;50.146;8.174;2023-12-28T00:24:58;3.90;;;3.50;;
1777;SDS011;71547;50.146;8.174;2023-12-28T00:27:26;4.90;;;3.30;;
1777;SDS011;71547;50.146;8.174;2023-12-28T00:29:54;3.65;;;3.35;;
1777;SDS011;71547;50.146;8.174;2023-12-28T00:32:21;4.32;;;3.60;;
1777;SDS011;71547;50.146;8.174;2023-12-28T00:34:48;4.00;;;3.70;;
1777;SDS011;71547;50.146;8.174;2023-12-28T00:37:16;6.93;;;4.50;;
1777;SDS011;71547;50.146;8.174;2023-12-28T00:39:43;4.82;;;4.35;;
1777;SDS011;71547;50.146;8.174;2023-12-28T00:42:10;11.80;;;4.07;;
1777;SDS011;71547;50.146;8.174;2023-12-28T00:44:37;5.65;;;4.75;;
1777;SDS011;71547;50.146;8.174;2023-12-28T00:47:06;7.30;;;5.03;;
1777;SDS011;71547;50.146;8.174;2023-12-28T00:49:33;4.83;;;3.80;;
1777;SDS011;71547;50.146;8.174;2023-12-28T00:52:00;3.92;;;3.63;;
1777;SDS011;71547;50.146;8.174;2023-12-28T00:54:27;4.07;;;3.72;;
1777;SDS011;71547;50.146;8.174;2023-12-28T00:56:54;5.53;;;3.90;;
1777;SDS011;71547;50.146;8.174;2023-12-28T00:59:21;3.85;;;3.55;;
1777;SDS011;71547;50.146;8.174;2023-12-28T01:01:48;4.53;;;4.13;;
1777;SDS011;71547;50.146;8.174;2023-12-28T01:04:17;5.50;;;4.70;;
1777;SDS011;71547;50.146;8.174;2023-12-28T01:06:45;7.13;;;4.53;;
1777;SDS011;71547;50.146;8.174;2023-12-28T01:09:12;4.80;;;3.58;;
1777;SDS011;71547;50.146;8.174;2023-12-28T01:11:39;5.38;;;4.18;;
1777;SDS011;71547;50.146;8.174;2023-12-28T01:14:06;5.72;;;3.60;;
1777;SDS011;71547;50.146;8.174;2023-12-28T01:16:33;5.70;;;3.63;;
1777;SDS011;71547;50.146;8.174;2023-12-28T01:19:01;6.63;;;4.10;;
1777;SDS011;71547;50.146;8.174;2023-12-28T01:21:30;5.47;;;4.30;;
1777;SDS011;71547;50.146;8.174;2023-12-28T01:23:58;4.40;;;4.00;;
1777;SDS011;71547;50.146;8.174;2023-12-28T01:26:25;4.60;;;4.15;;
1777;SDS011;71547;50.146;8.174;2023-12-28T01:28:52;6.15;;;4.10;;
1777;SDS011;71547;50.146;8.174;2023-12-28T01:31:19;4.55;;;3.50;;
1777;SDS011;71547;50.146;8.174;2023-12-28T01:33:46;4.47;;;4.07;;
1777;SDS011;71547;50.146;8.174;2023-12-28T01:36:15;6.75;;;3.65;;
1777;SDS011;71547;50.146;8.174;2023-12-28T01:38:45;7.10;;;4.15;;
1777;SDS011;71547;50.146;8.174;2023-12-28T01:41:12;3.50;;;3.17;;
1777;SDS011;71547;50.146;8.174;2023-12-28T01:43:41;4.20;;;3.90;;
1777;SDS011;71547;50.146;8.174;2023-12-28T01:46:10;4.30;;;3.80;;
1777;SDS011;71547;50.146;8.174;2023-12-28T01:48:43;5.32;;;4.28;;
1777;SDS011;71547;50.146;8.174;2023-12-28T01:51:13;4.72;;;4.13;;
1777;SDS011;71547;50.146;8.174;2023-12-28T01:53:41;6.28;;;4.05;;
1777;SDS011;71547;50.146;8.174;2023-12-28T01:56:11;3.97;;;3.67;;
1777;SDS011;71547;50.146;8.174;2023-12-28T01:58:40;4.65;;;3.40;;
1777;SDS011;71547;50.146;8.174;2023-12-28T02:01:09;4.10;;;3.67;;
1777;SDS011;71547;50.146;8.174;2023-12-28T02:03:37;5.05;;;3.67;;
1777;SDS011;71547;50.146;8.174;2023-12-28T02:06:05;4.43;;;3.57;;
1777;SDS011;71547;50.146;8.174;2023-12-28T02:08:33;5.70;;;3.90;;
1777;SDS011;71547;50.146;8.174;2023-12-28T02:11:00;3.70;;;3.40;;
1777;SDS011;71547;50.146;8.174;2023-12-28T02:13:29;6.32;;;3.45;;
1777;SDS011;71547;50.146;8.174;2023-12-28T02:15:58;4.10;;;3.65;;
1777;SDS011;71547;50.146;8.174;2023-12-28T02:18:30;5.75;;;4.05;;
1777;SDS011;71547;50.146;8.174;2023-12-28T02:21:04;4.05;;;3.55;;
1777;SDS011;71547;50.146;8.174;2023-12-28T02:23:34;3.53;;;3.23;;
1777;SDS011;71547;50.146;8.174;2023-12-28T02:26:02;4.03;;;3.60;;
1777;SDS011;71547;50.146;8.174;2023-12-28T02:28:30;4.87;;;4.00;;
1777;SDS011;71547;50.146;8.174;2023-12-28T02:30:57;3.30;;;3.00;;
1777;SDS011;71547;50.146;8.174;2023-12-28T02:33:29;3.17;;;2.93;;
1777;SDS011;71547;50.146;8.174;2023-12-28T02:36:04;4.73;;;3.63;;
1777;SDS011;71547;50.146;8.174;2023-12-28T02:38:36;4.27;;;3.87;;
1777;SDS011;71547;50.146;8.174;2023-12-28T02:41:06;8.57;;;3.63;;
1777;SDS011;71547;50.146;8.174;2023-12-28T02:43:35;7.22;;;3.55;;
1777;SDS011;71547;50.146;8.174;2023-12-28T02:46:02;3.83;;;3.42;;
1777;SDS011;71547;50.146;8.174;2023-12-28T02:48:29;6.30;;;4.03;;
1777;SDS011;71547;50.146;8.174;2023-12-28T02:50:56;4.40;;;4.00;;
1777;SDS011;71547;50.146;8.174;2023-12-28T02:53:24;4.03;;;3.63;;
1777;SDS011;71547;50.146;8.174;2023-12-28T02:55:51;4.05;;;3.67;;
1777;SDS011;71547;50.146;8.174;2023-12-28T02:58:19;4.80;;;4.30;;
1777;SDS011;71547;50.146;8.174;2023-12-28T03:00:47;5.60;;;3.92;;
1777;SDS011;71547;50.146;8.174;2023-12-28T03:03:15;4.32;;;3.85;;
1777;SDS011;71547;50.146;8.174;2023-12-28T03:05:42;4.10;;;3.70;;
1777;SDS011;71547;50.146;8.174;2023-12-28T03:08:10;3.55;;;3.25;;
1777;SDS011;71547;50.146;8.174;2023-12-28T03:10:37;5.50;;;4.30;;
1777;SDS011;71547;50.146;8.174;2023-12-28T03:13:04;3.90;;;3.53;;
1777;SDS011;71547;50.146;8.174;2023-12-28T03:15:32;4.07;;;3.75;;
1777;SDS011;71547;50.146;8.174;2023-12-28T03:17:59;4.07;;;3.60;;
1777;SDS011;71547;50.146;8.174;2023-12-28T03:20:27;4.10;;;3.65;;
1777;SDS011;71547;50.146;8.174;2023-12-28T03:22:54;5.80;;;3.30;;
1777;SDS011;71547;50.146;8.174;2023-12-28T03:25:21;6.40;;;3.70;;
1777;SDS011;71547;50.146;8.174;2023-12-28T03:27:48;3.75;;;3.42;;
1777;SDS011;71547;50.146;8.174;2023-12-28T03:30:15;3.85;;;3.30;;
1777;SDS011;71547;50.146;8.174;2023-12-28T03:32:44;3.78;;;3.47;;
1777;SDS011;71547;50.146;8.174;2023-12-28T03:35:11;3.53;;;3.25;;
1777;SDS011;71547;50.146;8.174;2023-12-28T03:37:38;3.88;;;3.50;;
1777;SDS011;71547;50.146;8.174;2023-12-28T03:40:06;4.38;;;3.65;;
1777;SDS011;71547;50.146;8.174;2023-12-28T03:42:34;3.63;;;3.22;;
1777;SDS011;71547;50.146;8.174;2023-12-28T03:45:01;3.92;;;3.53;;
1777;SDS011;71547;50.146;8.174;2023-12-28T03:47:29;3.90;;;3.50;;
1777;SDS011;71547;50.146;8.174;2023-12-28T03:49:57;4.18;;;3.75;;
1777;SDS011;71547;50.146;8.174;2023-12-28T03:52:25;4.10;;;3.80;;
1777;SDS011;71547;50.146;8.174;2023-12-28T03:54:53;3.90;;;3.50;;
1777;SDS011;71547;50.146;8.174;2023-12-28T03:57:21;4.03;;;3.53;;
1777;SDS011;71547;50.146;8.174;2023-12-28T03:59:48;5.15;;;3.80;;
1777;SDS011;71547;50.146;8.174;2023-12-28T04:02:15;3.80;;;3.33;;
1777;SDS011;71547;50.146;8.174;2023-12-28T04:04:42;3.77;;;3.47;;
1777;SDS011;71547;50.146;8.174;2023-12-28T04:07:10;5.93;;;3.13;;
1777;SDS011;71547;50.146;8.174;2023-12-28T04:09:38;4.07;;;3.60;;
1777;SDS011;71547;50.146;8.174;2023-12-28T04:12:05;3.80;;;3.50;;
1777;SDS011;71547;50.146;8.174;2023-12-28T04:14:33;3.23;;;3.03;;
1777;SDS011;71547;50.146;8.174;2023-12-28T04:17:01;3.40;;;3.05;;
1777;SDS011;71547;50.146;8.174;2023-12-28T04:19:28;3.47;;;2.80;;
1777;SDS011;71547;50.146;8.174;2023-12-28T04:21:56;3.22;;;3.03;;
1777;SDS011;71547;50.146;8.174;2023-12-28T04:24:25;3.50;;;3.17;;
1777;SDS011;71547;50.146;8.174;2023-12-28T04:26:52;3.72;;;3.42;;
1777;SDS011;71547;50.146;8.174;2023-12-28T04:29:19;3.20;;;2.92;;
1777;SDS011;71547;50.146;8.174;2023-12-28T04:31:47;3.70;;;3.40;;
1777;SDS011;71547;50.146;8.174;2023-12-28T04:34:14;3.60;;;3.30;;
1777;SDS011;71547;50.146;8.174;2023-12-28T04:36:41;3.90;;;3.25;;
1777;SDS011;71547;50.146;8.174;2023-12-28T04:39:13;5.05;;;4.10;;
1777;SDS011;71547;50.146;8.174;2023-12-28T04:41:41;4.80;;;4.45;;
1777;SDS011;71547;50.146;8.174;2023-12-28T04:44:08;5.37;;;3.30;;
1777;SDS011;71547;50.146;8.174;2023-12-28T04:46:37;3.00;;;2.80;;
1777;SDS011;71547;50.146;8.174;2023-12-28T04:49:06;7.97;;;3.42;;
1777;SDS011;71547;50.146;8.174;2023-12-28T04:51:33;3.80;;;3.50;;
1777;SDS011;71547;50.146;8.174;2023-12-28T04:54:00;4.60;;;4.15;;
1777;SDS011;71547;50.146;8.174;2023-12-28T04:56:27;4.10;;;3.80;;
1777;SDS011;71547;50.146;8.174;2023-12-28T04:58:56;6.22;;;4.00;;
1777;SDS011;71547;50.146;8.174;2023-12-28T05:01:23;4.57;;;3.50;;
1777;SDS011;71547;50.146;8.174;2023-12-28T05:03:51;4.43;;;4.03;;
1777;SDS011;71547;50.146;8.174;2023-12-28T05:06:18;4.00;;;3.42;;
1777;SDS011;71547;50.146;8.174;2023-12-28T05:08:45;3.67;;;3.42;;
1777;SDS011;71547;50.146;8.174;2023-12-28T05:11:12;3.97;;;3.67;;
1777;SDS011;71547;50.146;8.174;2023-12-28T05:13:39;5.03;;;4.50;;
1777;SDS011;71547;50.146;8.174;2023-12-28T05:16:08;4.30;;;4.00;;
1777;SDS011;71547;50.146;8.174;2023-12-28T05:18:35;4.93;;;4.18;;
1777;SDS011;71547;50.146;8.174;2023-12-28T05:21:03;6.60;;;4.43;;
1777;SDS011;71547;50.146;8.174;2023-12-28T05:23:30;4.80;;;3.90;;
1777;SDS011;71547;50.146;8.174;2023-12-28T05:25:57;5.03;;;4.63;;
1777;SDS011;71547;50.146;8.174;2023-12-28T05:28:24;5.40;;;4.70;;
1777;SDS011;71547;50.146;8.174;2023-12-28T05:30:51;6.10;;;4.40;;
1777;SDS011;71547;50.146;8.174;2023-12-28T05:33:20;5.93;;;5.32;;
1777;SDS011;71547;50.146;8.174;2023-12-28T05:35:48;4.50;;;4.10;;
1777;SDS011;71547;50.146;8.174;2023-12-28T05:38:16;6.75;;;4.60;;
1777;SDS011;71547;50.146;8.174;2023-12-28T05:40:44;5.00;;;4.45;;
1777;SDS011;71547;50.146;8.174;2023-12-28T05:43:11;5.47;;;4.82;;
1777;SDS011;71547;50.146;8.174;2023-12-28T05:45:38;6.18;;;4.50;;
1777;SDS011;71547;50.146;8.174;2023-12-28T05:48:05;4.95;;;4.55;;
1777;SDS011;71547;50.146;8.174;2023-12-28T05:50:33;7.10;;;4.70;;
1777;SDS011;71547;50.146;8.174;2023-12-28T05:53:00;6.30;;;5.15;;
1777;SDS011;71547;50.146;8.174;2023-12-28T05:55:28;6.57;;;5.40;;
1777;SDS011;71547;50.146;8.174;2023-12-28T05:57:55;7.50;;;5.00;;
1777;SDS011;71547;50.146;8.174;2023-12-28T06:00:23;7.30;;;5.10;;
1777;SDS011;71547;50.146;8.174;2023-12-28T06:02:51;5.95;;;4.90;;
1777;SDS011;71547;50.146;8.174;2023-12-28T06:05:18;5.60;;;5.10;;
1777;SDS011;71547;50.146;8.174;2023-12-28T06:07:46;5.32;;;4.85;;
1777;SDS011;71547;50.146;8.174;2023-12-28T06:10:14;6.22;;;5.20;;
1777;SDS011;71547;50.146;8.174;2023-12-28T06:12:41;6.25;;;5.10;;
1777;SDS011;71547;50.146;8.174;2023-12-28T06:15:08;5.70;;;5.30;;
1777;SDS011;71547;50.146;8.174;2023-12-28T06:17:36;6.32;;;5.53;;
1777;SDS011;71547;50.146;8.174;2023-12-28T06:20:04;5.55;;;5.07;;
1777;SDS011;71547;50.146;8.174;2023-12-28T06:22:32;5.10;;;4.70;;
1777;SDS011;71547;50.146;8.174;2023-12-28T06:25:01;5.60;;;5.07;;
1777;SDS011;71547;50.146;8.174;2023-12-28T06:27:29;4.40;;;4.10;;
1777;SDS011;71547;50.146;8.174;2023-12-28T06:29:57;5.68;;;5.18;;
1777;SDS011;71547;50.146;8.174;2023-12-28T06:32:24;5.68;;;5.18;;
1777;SDS011;71547;50.146;8.174;2023-12-28T06:34:53;5.72;;;4.88;;
1777;SDS011;71547;50.146;8.174;2023-12-28T06:37:21;4.57;;;4.22;;
1777;SDS011;71547;50.146;8.174;2023-12-28T06:39:48;8.77;;;5.20;;
1777;SDS011;71547;50.146;8.174;2023-12-28T06:42:16;5.50;;;5.00;;
1777;SDS011;71547;50.146;8.174;2023-12-28T06:44:43;4.77;;;4.37;;
1777;SDS011;71547;50.146;8.174;2023-12-28T06:47:10;4.95;;;4.55;;
1777;SDS011;71547;50.146;8.174;2023-12-28T06:49:37;4.65;;;4.25;;
1777;SDS011;71547;50.146;8.174;2023-12-28T06:52:05;4.97;;;4.20;;
1777;SDS011;71547;50.146;8.174;2023-12-28T06:54:32;4.30;;;3.90;;
1777;SDS011;71547;50.146;8.174;2023-12-28T06:56:59;4.13;;;3.80;;
1777;SDS011;71547;50.146;8.174;2023-12-28T06:59:27;4.00;;;3.40;;
1777;SDS011;71547;50.146;8.174;2023-12-28T07:01:54;3.72;;;3.42;;
1777;SDS011;71547;50.146;8.174;2023-12-28T07:04:21;3.80;;;3.50;;
1777;SDS011;71547;50.146;8.174;2023-12-28T07:06:51;4.95;;;3.50;;
1777;SDS011;71547;50.146;8.174;2023-12-28T07:09:19;4.40;;;3.40;;
1777;SDS011;71547;50.146;8.174;2023-12-28T07:11:46;4.30;;;4.00;;
1777;SDS011;71547;50.146;8.174;2023-12-28T07:14:13;3.33;;;3.13;;
1777;SDS011;71547;50.146;8.174;2023-12-28T07:16:41;8.55;;;3.63;;
1777;SDS011;71547;50.146;8.174;2023-12-28T07:19:08;3.65;;;3.38;;
1777;SDS011;71547;50.146;8.174;2023-12-28T07:21:35;3.40;;;3.20;;
1777;SDS011;71547;50.146;8.174;2023-12-28T07:24:05;3.75;;;3.45;;
1777;SDS011;71547;50.146;8.174;2023-12-28T07:26:32;3.13;;;2.92;;
1777;SDS011;71547;50.146;8.174;2023-12-28T07:28:59;3.10;;;2.90;;
1777;SDS011;71547;50.146;8.174;2023-12-28T07:31:27;3.60;;;3.30;;
1777;SDS011;71547;50.146;8.174;2023-12-28T07:33:56;3.87;;;3.17;;
1777;SDS011;71547;50.146;8.174;2023-12-28T07:36:23;3.73;;;3.37;;
1777;SDS011;71547;50.146;8.174;2023-12-28T07:38:51;3.22;;;2.97;;
1777;SDS011;71547;50.146;8.174;2023-12-28T07:41:18;3.70;;;2.97;;
1777;SDS011;71547;50.146;8.174;2023-12-28T07:43:45;3.30;;;3.10;;
1777;SDS011;71547;50.146;8.174;2023-12-28T07:46:12;4.60;;;3.10;;
1777;SDS011;71547;50.146;8.174;2023-12-28T07:48:39;3.55;;;3.00;;
1777;SDS011;71547;50.146;8.174;2023-12-28T07:51:08;3.27;;;3.07;;
1777;SDS011;71547;50.146;8.174;2023-12-28T07:53:36;4.47;;;3.40;;
1777;SDS011;71547;50.146;8.174;2023-12-28T07:56:03;4.37;;;3.00;;
1777;SDS011;71547;50.146;8.174;2023-12-28T07:58:33;2.87;;;2.67;;
1777;SDS011;71547;50.146;8.174;2023-12-28T08:01:00;2.65;;;2.45;;
1777;SDS011;71547;50.146;8.174;2023-12-28T08:03:28;2.83;;;2.63;;
1777;SDS011;71547;50.146;8.174;2023-12-28T08:05:55;3.30;;;3.08;;
1777;SDS011;71547;50.146;8.174;2023-12-28T08:08:23;3.40;;;2.80;;
1777;SDS011;71547;50.146;8.174;2023-12-28T08:10:51;2.55;;;2.40;;
1777;SDS011;71547;50.146;8.174;2023-12-28T08:13:18;3.17;;;2.67;;
1777;SDS011;71547;50.146;8.174;2023-12-28T08:15:47;4.43;;;2.50;;
1777;SDS011;71547;50.146;8.174;2023-12-28T08:18:14;2.70;;;2.27;;
1777;SDS011;71547;50.146;8.174;2023-12-28T08:20:45;2.63;;;2.35;;
1777;SDS011;71547;50.146;8.174;2023-12-28T08:23:12;2.70;;;2.45;;
1777;SDS011;71547;50.146;8.174;2023-12-28T08:25:45;3.50;;;2.95;;
1777;SDS011;71547;50.146;8.174;2023-12-28T08:28:12;2.63;;;2.15;;
1777;SDS011;71547;50.146;8.174;2023-12-28T08:30:39;3.42;;;3.10;;
1777;SDS011;71547;50.146;8.174;2023-12-28T08:33:06;5.35;;;2.63;;
1777;SDS011;71547;50.146;8.174;2023-12-28T08:35:34;4.95;;;3.47;;
1777;SDS011;71547;50.146;8.174;2023-12-28T08:38:01;3.03;;;2.70;;
1777;SDS011;71547;50.146;8.174;2023-12-28T08:40:30;2.85;;;2.70;;
1777;SDS011;71547;50.146;8.174;2023-12-28T08:42:58;2.90;;;2.70;;
1777;SDS011;71547;50.146;8.174;2023-12-28T08:45:25;3.50;;;2.27;;
1777;SDS011;71547;50.146;8.174;2023-12-28T08:47:52;2.58;;;2.35;;
1777;SDS011;71547;50.146;8.174;2023-12-28T08:50:19;2.53;;;2.33;;
1777;SDS011;71547;50.146;8.174;2023-12-28T08:52:47;3.47;;;2.65;;
1777;SDS011;71547;50.146;8.174;2023-12-28T08:55:14;2.80;;;2.60;;
1777;SDS011;71547;50.146;8.174;2023-12-28T08:57:41;2.93;;;2.73;;
1777;SDS011;71547;50.146;8.174;2023-12-28T09:00:10;3.70;;;2.30;;
1777;SDS011;71547;50.146;8.174;2023-12-28T09:02:41;2.28;;;2.08;;
1777;SDS011;71547;50.146;8.174;2023-12-28T09:05:08;4.10;;;2.50;;
1777;SDS011;71547;50.146;8.174;2023-12-28T09:07:36;2.85;;;2.58;;
1777;SDS011;71547;50.146;8.174;2023-12-28T09:10:09;4.78;;;2.28;;
1777;SDS011;71547;50.146;8.174;2023-12-28T09:12:36;2.90;;;2.70;;
1777;SDS011;71547;50.146;8.174;2023-12-28T09:15:04;8.43;;;2.50;;
1777;SDS011;71547;50.146;8.174;2023-12-28T09:17:34;3.40;;;2.43;;
1777;SDS011;71547;50.146;8.174;2023-12-28T09:20:02;2.90;;;2.60;;
1777;SDS011;71547;50.146;8.174;2023-12-28T09:22:30;3.47;;;1.92;;
1777;SDS011;71547;50.146;8.174;2023-12-28T09:24:57;2.10;;;1.63;;
1777;SDS011;71547;50.146;8.174;2023-12-28T09:27:24;2.70;;;1.90;;
1777;SDS011;71547;50.146;8.174;2023-12-28T09:29:51;5.20;;;2.40;;
1777;SDS011;71547;50.146;8.174;2023-12-28T09:32:18;2.33;;;1.80;;
1777;SDS011;71547;50.146;8.174;2023-12-28T09:34:47;2.30;;;2.10;;
1777;SDS011;71547;50.146;8.174;2023-12-28T09:37:14;4.63;;;2.10;;
1777;SDS011;71547;50.146;8.174;2023-12-28T09:39:41;2.50;;;1.50;;
1777;SDS011;71547;50.146;8.174;2023-12-28T09:42:09;2.53;;;2.00;;
1777;SDS011;71547;50.146;8.174;2023-12-28T09:44:43;3.20;;;2.20;;
1777;SDS011;71547;50.146;8.174;2023-12-28T09:47:10;3.00;;;1.90;;
1777;SDS011;71547;50.146;8.174;2023-12-28T09:49:39;3.95;;;2.42;;
1777;SDS011;71547;50.146;8.174;2023-12-28T09:52:10;2.10;;;1.90;;
1777;SDS011;71547;50.146;8.174;2023-12-28T09:54:37;2.25;;;1.75;;
1777;SDS011;71547;50.146;8.174;2023-12-28T09:57:05;8.83;;;2.10;;
1777;SDS011;71547;50.146;8.174;2023-12-28T09:59:32;2.67;;;1.67;;
1777;SDS011;71547;50.146;8.174;2023-12-28T10:02:00;1.90;;;1.80;;
1777;SDS011;71547;50.146;8.174;2023-12-28T10:04:28;1.57;;;1.47;;
1777;SDS011;71547;50.146;8.174;2023-12-28T10:06:55;2.00;;;1.90;;
1777;SDS011;71547;50.146;8.174;2023-12-28T10:09:25;7.03;;;2.60;;
1777;SDS011;71547;50.146;8.174;2023-12-28T10:11:56;5.30;;;1.83;;
1777;SDS011;71547;50.146;8.174;2023-12-28T10:14:25;3.08;;;2.05;;
1777;SDS011;71547;50.146;8.174;2023-12-28T10:16:52;2.63;;;1.70;;
1777;SDS011;71547;50.146;8.174;2023-12-28T10:19:21;2.23;;;2.03;;
1777;SDS011;71547;50.146;8.174;2023-12-28T10:21:49;5.23;;;1.80;;
1777;SDS011;71547;50.146;8.174;2023-12-28T10:24:16;6.32;;;2.00;;
1777;SDS011;71547;50.146;8.174;2023-12-28T10:26:45;3.13;;;2.07;;
1777;SDS011;71547;50.146;8.174;2023-12-28T10:29:12;2.77;;;2.00;;
1777;SDS011;71547;50.146;8.174;2023-12-28T10:31:41;3.50;;;1.87;;
1777;SDS011;71547;50.146;8.174;2023-12-28T10:34:10;1.90;;;1.80;;
1777;SDS011;71547;50.146;8.174;2023-12-28T10:36:38;2.05;;;1.80;;
1777;SDS011;71547;50.146;8.174;2023-12-28T10:39:08;1.80;;;1.60;;
1777;SDS011;71547;50.146;8.174;2023-12-28T10:41:40;2.10;;;1.60;;
1777;SDS011;71547;50.146;8.174;2023-12-28T10:44:11;3.40;;;2.20;;
1777;SDS011;71547;50.146;8.174;2023-12-28T10:46:46;2.70;;;1.97;;
1777;SDS011;71547;50.146;8.174;2023-12-28T10:49:17;2.50;;;2.00;;
1777;SDS011;71547;50.146;8.174;2023-12-28T10:51:52;3.13;;;2.90;;
1777;SDS011;71547;50.146;8.174;2023-12-28T10:54:23;2.03;;;1.80;;
1777;SDS011;71547;50.146;8.174;2023-12-28T10:57:05;6.00;;;2.33;;
1777;SDS011;71547;50.146;8.174;2023-12-28T10:59:39;2.77;;;2.00;;
1777;SDS011;71547;50.146;8.174;2023-12-28T11:02:14;3.07;;;1.73;;
1777;SDS011;71547;50.146;8.174;2023-12-28T11:04:48;2.83;;;2.10;;
1777;SDS011;71547;50.146;8.174;2023-12-28T11:07:17;3.07;;;2.30;;
1777;SDS011;71547;50.146;8.174;2023-12-28T11:09:45;4.10;;;2.30;;
1777;SDS011;71547;50.146;8.174;2023-12-28T11:12:15;4.90;;;2.60;;
1777;SDS011;71547;50.146;8.174;2023-12-28T11:14:46;3.77;;;2.33;;
1777;SDS011;71547;50.146;8.174;2023-12-28T11:17:17;3.27;;;2.00;;
1777;SDS011;71547;50.146;8.174;2023-12-28T11:19:45;7.53;;;1.90;;
1777;SDS011;71547;50.146;8.174;2023-12-28T11:22:14;2.50;;;2.40;;
1777;SDS011;71547;50.146;8.174;2023-12-28T11:24:41;3.87;;;2.30;;
1777;SDS011;71547;50.146;8.174;2023-12-28T11:27:09;2.83;;;1.87;;
1777;SDS011;71547;50.146;8.174;2023-12-28T11:29:38;2.50;;;2.30;;
1777;SDS011;71547;50.146;8.174;2023-12-28T11:32:08;1.90;;;1.77;;
1777;SDS011;71547;50.146;8.174;2023-12-28T11:34:36;3.10;;;1.90;;
1777;SDS011;71547;50.146;8.174;2023-12-28T11:37:04;7.20;;;1.90;;
1777;SDS011;71547;50.146;8.174;2023-12-28T11:39:34;2.73;;;1.80;;
1777;SDS011;71547;50.146;8.174;2023-12-28T11:42:05;1.70;;;1.60;;
1777;SDS011;71547;50.146;8.174;2023-12-28T11:44:38;2.20;;;2.00;;
1777;SDS011;71547;50.146;8.174;2023-12-28T11:47:11;6.80;;;1.97;;
1777;SDS011;71547;50.146;8.174;2023-12-28T11:49:39;3.27;;;2.23;;
1777;SDS011;71547;50.146;8.174;2023-12-28T11:52:07;3.20;;;2.13;;
1777;SDS011;71547;50.146;8.174;2023-12-28T11:54:37;2.70;;;1.93;;
1777;SDS011;71547;50.146;8.174;2023-12-28T11:57:04;4.43;;;2.07;;
1777;SDS011;71547;50.146;8.174;2023-12-28T11:59:31;2.80;;;2.00;;
1777;SDS011;71547;50.146;8.174;2023-12-28T12:02:00;3.40;;;2.33;;
1777;SDS011;71547;50.146;8.174;2023-12-28T12:04:27;3.93;;;2.10;;
1777;SDS011;71547;50.146;8.174;2023-12-28T12:06:54;2.37;;;2.17;;
1777;SDS011;71547;50.146;8.174;2023-12-28T12:09:21;2.60;;;2.40;;
1777;SDS011;71547;50.146;8.174;2023-12-28T12:11:49;3.53;;;1.90;;
1777;SDS011;71547;50.146;8.174;2023-12-28T12:14:18;3.20;;;1.97;;
1777;SDS011;71547;50.146;8.174;2023-12-28T12:16:45;2.63;;;1.97;;
1777;SDS011;71547;50.146;8.174;2023-12-28T12:19:14;2.73;;;2.10;;
1777;SDS011;71547;50.146;8.174;2023-12-28T12:21:42;2.40;;;1.90;;
1777;SDS011;71547;50.146;8.174;2023-12-28T12:24:09;2.20;;;2.00;;
1777;SDS011;71547;50.146;8.174;2023-12-28T12:26:37;3.10;;;2.07;;
1777;SDS011;71547;50.146;8.174;2023-12-28T12:29:04;6.53;;;2.43;;
1777;SDS011;71547;50.146;8.174;2023-12-28T12:31:33;2.87;;;1.93;;
1777;SDS011;71547;50.146;8.174;2023-12-28T12:34:00;2.13;;;1.93;;
1777;SDS011;71547;50.146;8.174;2023-12-28T12:36:29;2.87;;;1.70;;
1777;SDS011;71547;50.146;8.174;2023-12-28T12:38:57;3.77;;;2.03;;
1777;SDS011;71547;50.146;8.174;2023-12-28T12:41:24;2.20;;;2.00;;
1777;SDS011;71547;50.146;8.174;2023-12-28T12:43:52;5.53;;;2.03;;
1777;SDS011;71547;50.146;8.174;2023-12-28T12:46:22;4.83;;;1.57;;
1777;SDS011;71547;50.146;8.174;2023-12-28T12:48:54;2.20;;;2.10;;
1777;SDS011;71547;50.146;8.174;2023-12-28T12:51:22;2.47;;;2.20;;
1777;SDS011;71547;50.146;8.174;2023-12-28T12:53:55;1.97;;;1.63;;
1777;SDS011;71547;50.146;8.174;2023-12-28T12:56:23;2.70;;;1.73;;
1777;SDS011;71547;50.146;8.174;2023-12-28T12:58:51;2.77;;;2.20;;
1777;SDS011;71547;50.146;8.174;2023-12-28T13:01:20;3.20;;;1.70;;
1777;SDS011;71547;50.146;8.174;2023-12-28T13:03:47;3.90;;;1.87;;
1777;SDS011;71547;50.146;8.174;2023-12-28T13:06:14;3.90;;;2.20;;
1777;SDS011;71547;50.146;8.174;2023-12-28T13:08:42;2.90;;;1.90;;
1777;SDS011;71547;50.146;8.174;2023-12-28T13:11:10;2.20;;;2.07;;
1777;SDS011;71547;50.146;8.174;2023-12-28T13:13:38;2.30;;;2.10;;
1777;SDS011;71547;50.146;8.174;2023-12-28T13:16:05;5.23;;;2.30;;
1777;SDS011;71547;50.146;8.174;2023-12-28T13:18:32;3.23;;;2.00;;
1777;SDS011;71547;50.146;8.174;2023-12-28T13:21:01;4.37;;;1.70;;
1777;SDS011;71547;50.146;8.174;2023-12-28T13:23:29;4.37;;;2.40;;
1777;SDS011;71547;50.146;8.174;2023-12-28T13:25:56;3.77;;;1.90;;
1777;SDS011;71547;50.146;8.174;2023-12-28T13:28:25;1.80;;;1.70;;
1777;SDS011;71547;50.146;8.174;2023-12-28T13:30:52;1.83;;;1.73;;
1777;SDS011;71547;50.146;8.174;2023-12-28T13:33:22;6.30;;;1.97;;
1777;SDS011;71547;50.146;8.174;2023-12-28T13:35:51;2.40;;;1.83;;
1777;SDS011;71547;50.146;8.174;2023-12-28T13:38:18;4.40;;;2.40;;
1777;SDS011;71547;50.146;8.174;2023-12-28T13:40:46;6.20;;;2.70;;
1777;SDS011;71547;50.146;8.174;2023-12-28T13:43:13;2.73;;;2.27;;
1777;SDS011;71547;50.146;8.174;2023-12-28T13:45:41;4.10;;;2.40;;
1777;SDS011;71547;50.146;8.174;2023-12-28T13:48:09;4.67;;;2.60;;
1777;SDS011;71547;50.146;8.174;2023-12-28T13:50:36;3.03;;;2.80;;
1777;SDS011;71547;50.146;8.174;2023-12-28T13:53:03;6.53;;;2.03;;
1777;SDS011;71547;50.146;8.174;2023-12-28T13:55:32;6.77;;;2.63;;
1777;SDS011;71547;50.146;8.174;2023-12-28T13:57:59;4.87;;;2.50;;
1777;SDS011;71547;50.146;8.174;2023-12-28T14:00:27;3.17;;;2.47;;
1777;SDS011;71547;50.146;8.174;2023-12-28T14:02:55;3.73;;;2.77;;
1777;SDS011;71547;50.146;8.174;2023-12-28T14:05:23;2.67;;;2.47;;
1777;SDS011;71547;50.146;8.174;2023-12-28T14:07:51;4.43;;;2.63;;
1777;SDS011;71547;50.146;8.174;2023-12-28T14:10:18;3.43;;;2.80;;
1777;SDS011;71547;50.146;8.174;2023-12-28T14:12:46;4.90;;;2.80;;
1777;SDS011;71547;50.146;8.174;2023-12-28T14:15:13;4.20;;;3.60;;
1777;SDS011;71547;50.146;8.174;2023-12-28T14:17:42;3.03;;;2.50;;
1777;SDS011;71547;50.146;8.174;2023-12-28T14:20:11;4.63;;;2.90;;
1777;SDS011;71547;50.146;8.174;2023-12-28T14:22:38;3.33;;;3.03;;
1777;SDS011;71547;50.146;8.174;2023-12-28T14:25:07;2.87;;;2.50;;
1777;SDS011;71547;50.146;8.174;2023-12-28T14:27:38;3.10;;;2.50;;
1777;SDS011;71547;50.146;8.174;2023-12-28T14:30:06;2.57;;;2.37;;
1777;SDS011;71547;50.146;8.174;2023-12-28T14:32:37;2.80;;;2.60;;
1777;SDS011;71547;50.146;8.174;2023-12-28T14:35:05;2.73;;;2.40;;
1777;SDS011;71547;50.146;8.174;2023-12-28T14:37:35;2.37;;;2.27;;
1777;SDS011;71547;50.146;8.174;2023-12-28T14:40:03;2.13;;;2.03;;
1777;SDS011;71547;50.146;8.174;2023-12-28T14:42:36;1.73;;;1.63;;
1777;SDS011;71547;50.146;8.174;2023-12-28T14:45:03;2.00;;;1.90;;
1777;SDS011;71547;50.146;8.174;2023-12-28T14:47:32;1.80;;;1.70;;
1777;SDS011;71547;50.146;8.174;2023-12-28T14:49:59;2.23;;;2.13;;
1777;SDS011;71547;50.146;8.174;2023-12-28T14:52:28;1.70;;;1.50;;
1777;SDS011;71547;50.146;8.174;2023-12-28T14:54:56;3.13;;;1.47;;
1777;SDS011;71547;50.146;8.174;2023-12-28T14:57:24;2.10;;;2.00;;
1777;SDS011;71547;50.146;8.174;2023-12-28T14:59:51;1.90;;;1.70;;
1777;SDS011;71547;50.146;8.174;2023-12-28T15:02:18;1.70;;;1.60;;
1777;SDS011;71547;50.146;8.174;2023-12-28T15:04:45;1.80;;;1.40;;